createdAt,value
2018-05-25T00:00:11.832Z,99.90
2018-05-25T00:02:41.995Z,99.90
2018-05-25T00:05:12.468Z,99.90
2018-05-25T00:07:43.147Z,99.90
2018-05-25T00:10:13.779Z,99.90
2018-05-25T00:12:43.877Z,99.90
2018-05-25T00:15:13.988Z,99.90
2018-05-25T00:17:44.297Z,99.90
2018-05-25T00:20:14.428Z,99.90
2018-05-25T00:22:45.344Z,99.90
2018-05-25T00:25:16.309Z,99.90
2018-05-25T00:27:47.067Z,99.90
2018-05-25T00:30:17.200Z,99.90
2018-05-25T00:32:47.228Z,99.90
2018-05-25T00:35:17.509Z,99.90
2018-05-25T00:37:48.761Z,99.90
2018-05-25T00:40:19.932Z,99.90
2018-05-25T00:42:50.236Z,99.90
2018-05-25T00:45:20.281Z,99.90
2018-05-25T00:47:50.305Z,99.90
2018-05-25T00:50:21.523Z,99.90
2018-05-25T00:52:51.628Z,99.90
2018-05-25T00:55:32.643Z,99.90
2018-05-25T00:58:02.997Z,99.90
2018-05-25T01:00:34.167Z,99.90
2018-05-25T01:03:04.391Z,99.90
2018-05-25T01:05:34.437Z,99.90
2018-05-25T01:08:05.420Z,99.90
2018-05-25T01:10:35.769Z,99.90
2018-05-25T01:13:05.854Z,99.90
2018-05-25T01:15:36.183Z,99.90
2018-05-25T01:18:06.389Z,99.90
2018-05-25T01:20:36.400Z,99.90
2018-05-25T01:23:06.752Z,99.90
2018-05-25T01:25:36.832Z,99.90
2018-05-25T01:28:07.420Z,99.90
2018-05-25T01:30:38.487Z,99.90
2018-05-25T01:33:08.502Z,99.90
2018-05-25T01:35:38.952Z,99.90
2018-05-25T01:38:09.667Z,99.90
2018-05-25T01:40:40.028Z,99.90
2018-05-25T01:43:10.025Z,99.90
2018-05-25T01:45:40.067Z,99.90
2018-05-25T01:48:10.480Z,99.90
2018-05-25T01:50:41.552Z,99.90
2018-05-25T01:53:11.604Z,99.90
2018-05-25T01:55:42.051Z,99.90
2018-05-25T01:58:12.292Z,99.90
2018-05-25T02:00:43.036Z,99.90
2018-05-25T02:03:13.475Z,99.90
2018-05-25T02:05:43.817Z,99.90
2018-05-25T02:08:15.418Z,99.90
2018-05-25T02:10:45.726Z,99.90
2018-05-25T02:13:15.745Z,99.90
2018-05-25T02:15:46.104Z,99.90
2018-05-25T02:18:16.410Z,99.90
2018-05-25T02:20:47.089Z,99.90
2018-05-25T02:23:17.280Z,99.90
2018-05-25T02:25:48.308Z,99.90
2018-05-25T02:28:18.417Z,99.90
2018-05-25T02:30:49.053Z,99.90
2018-05-25T02:33:20.668Z,99.90
2018-05-25T02:35:50.653Z,99.90
2018-05-25T02:38:21.813Z,99.90
2018-05-25T02:40:52.212Z,99.90
2018-05-25T02:43:22.306Z,99.90
2018-05-25T02:45:52.333Z,99.90
2018-05-25T02:48:22.747Z,99.90
2018-05-25T02:50:53.149Z,99.90
2018-05-25T02:53:23.156Z,99.90
2018-05-25T02:55:53.465Z,99.90
2018-05-25T02:58:23.801Z,99.90
2018-05-25T03:00:53.997Z,99.90
2018-05-25T03:03:24.279Z,99.90
2018-05-25T03:05:54.602Z,99.90
2018-05-25T03:08:24.678Z,99.90
2018-05-25T03:10:54.968Z,99.90
2018-05-25T03:13:26.329Z,99.90
2018-05-25T03:15:57.133Z,99.90
2018-05-25T03:18:27.502Z,99.90
2018-05-25T03:20:58.028Z,99.90
2018-05-25T03:23:28.073Z,99.90
2018-05-25T03:25:58.386Z,99.90
2018-05-25T03:28:29.161Z,99.90
2018-05-25T03:30:59.472Z,99.90
2018-05-25T03:33:29.621Z,99.90
2018-05-25T03:36:00.339Z,99.90
2018-05-25T03:38:30.386Z,99.90
2018-05-25T03:41:00.420Z,99.90
2018-05-25T03:43:30.840Z,99.90
2018-05-25T03:46:01.521Z,99.90
2018-05-25T03:48:31.593Z,99.90
2018-05-25T03:51:01.656Z,99.90
2018-05-25T03:53:31.942Z,99.90
2018-05-25T03:56:02.034Z,99.90
2018-05-25T03:58:41.664Z,99.90
2018-05-25T04:01:22.834Z,99.90
2018-05-25T04:03:53.328Z,99.90
2018-05-25T04:06:23.718Z,99.90
2018-05-25T04:08:53.748Z,99.90
2018-05-25T04:11:23.870Z,99.90
2018-05-25T04:13:54.410Z,99.90
2018-05-25T04:16:24.373Z,99.90
2018-05-25T04:18:55.508Z,99.90
2018-05-25T04:21:25.672Z,99.90
2018-05-25T04:23:55.945Z,99.90
2018-05-25T04:26:26.257Z,99.90
2018-05-25T04:28:56.315Z,99.90
2018-05-25T04:31:26.954Z,99.90
2018-05-25T04:33:57.493Z,99.90
2018-05-25T04:36:27.571Z,99.90
2018-05-25T04:38:58.937Z,99.90
2018-05-25T04:41:29.784Z,99.90
2018-05-25T04:43:59.910Z,99.90
2018-05-25T04:46:30.905Z,99.90
2018-05-25T04:49:00.916Z,99.90
2018-05-25T04:51:31.241Z,99.90
2018-05-25T04:54:01.667Z,99.90
2018-05-25T04:56:31.759Z,99.90
2018-05-25T04:59:03.249Z,99.90
2018-05-25T05:01:35.399Z,99.90
2018-05-25T05:04:08.021Z,99.90
2018-05-25T05:06:38.242Z,99.90
2018-05-25T05:09:09.155Z,99.90
2018-05-25T05:11:39.511Z,99.90
2018-05-25T05:14:09.832Z,99.90
2018-05-25T05:16:39.897Z,99.90
2018-05-25T05:19:10.871Z,99.90
2018-05-25T05:21:42.398Z,99.90
2018-05-25T05:24:12.767Z,99.90
2018-05-25T05:26:42.790Z,99.90
2018-05-25T05:29:13.147Z,99.90
2018-05-25T05:31:43.509Z,99.90
2018-05-25T05:34:14.531Z,99.90
2018-05-25T05:36:44.600Z,99.90
2018-05-25T05:39:14.927Z,99.90
2018-05-25T05:41:44.981Z,99.90
2018-05-25T05:44:15.755Z,99.90
2018-05-25T05:46:46.139Z,99.90
2018-05-25T05:49:16.228Z,99.90
2018-05-25T05:51:46.543Z,99.90
2018-05-25T05:54:17.124Z,99.90
2018-05-25T05:56:47.985Z,99.90
2018-05-25T05:59:18.474Z,99.90
2018-05-25T06:01:48.818Z,99.90
2018-05-25T06:04:19.348Z,99.90
2018-05-25T06:06:50.417Z,99.90
2018-05-25T06:09:20.980Z,99.90
2018-05-25T06:11:51.025Z,99.90
2018-05-25T06:14:21.057Z,99.90
2018-05-25T06:16:51.446Z,99.90
2018-05-25T06:19:21.544Z,99.90
2018-05-25T06:21:51.891Z,99.90
2018-05-25T06:24:23.248Z,99.90
2018-05-25T06:26:53.257Z,99.90
2018-05-25T06:29:24.209Z,99.90
2018-05-25T06:31:54.869Z,99.90
2018-05-25T06:34:26.037Z,99.90
2018-05-25T06:36:56.081Z,99.90
2018-05-25T06:39:26.461Z,99.90
2018-05-25T06:41:56.484Z,99.90
2018-05-25T06:44:26.665Z,99.90
2018-05-25T06:46:57.834Z,99.90
2018-05-25T06:49:28.614Z,99.90
2018-05-25T06:51:59.256Z,99.90
2018-05-25T06:54:30.145Z,99.90
2018-05-25T06:57:00.206Z,99.90
2018-05-25T06:59:30.533Z,99.90
2018-05-25T07:02:01.887Z,99.90
2018-05-25T07:04:33.775Z,99.90
2018-05-25T07:07:04.842Z,99.90
2018-05-25T07:09:35.824Z,99.90
2018-05-25T07:12:05.967Z,99.90
2018-05-25T07:14:37.060Z,99.90
2018-05-25T07:17:07.231Z,99.90
2018-05-25T07:19:37.292Z,99.90
2018-05-25T07:22:07.902Z,99.90
2018-05-25T07:27:50.288Z,99.90
2018-05-25T07:30:20.577Z,99.90
2018-05-25T07:32:50.600Z,99.90
2018-05-25T07:35:20.890Z,99.90
2018-05-25T07:37:52.045Z,99.90
2018-05-25T07:40:22.069Z,99.90
2018-05-25T07:42:52.369Z,99.90
2018-05-25T07:45:22.392Z,99.90
2018-05-25T07:47:53.181Z,99.90
2018-05-25T07:50:24.224Z,99.90
2018-05-25T07:52:54.352Z,99.90
2018-05-25T07:55:24.434Z,99.90
2018-05-25T07:57:54.928Z,99.90
2018-05-25T08:00:25.101Z,99.90
2018-05-25T08:02:55.628Z,99.90
2018-05-25T08:05:25.660Z,99.90
2018-05-25T08:07:56.357Z,99.90
2018-05-25T08:10:26.638Z,99.90
2018-05-25T08:12:57.540Z,99.90
2018-05-25T08:15:27.880Z,99.90
2018-05-25T08:17:58.084Z,99.90
2018-05-25T08:20:28.070Z,99.90
2018-05-25T08:22:58.625Z,99.90
2018-05-25T08:25:28.665Z,99.90
2018-05-25T08:27:58.730Z,99.90
2018-05-25T08:30:29.148Z,99.90
2018-05-25T08:32:59.184Z,99.90
2018-05-25T08:35:29.284Z,99.90
2018-05-25T08:38:00.673Z,99.90
2018-05-25T08:40:30.734Z,99.90
2018-05-25T08:43:01.562Z,99.90
2018-05-25T08:45:31.890Z,99.90
2018-05-25T08:48:02.716Z,99.90
2018-05-25T08:50:33.556Z,99.90
2018-05-25T08:53:04.763Z,99.90
2018-05-25T08:55:34.825Z,99.90
2018-05-25T08:58:05.037Z,99.90
2018-05-25T09:00:36.088Z,99.90
2018-05-25T09:03:07.833Z,99.90
2018-05-25T09:05:37.838Z,99.90
2018-05-25T09:08:08.647Z,99.90
2018-05-25T09:10:38.681Z,99.90
2018-05-25T09:13:08.735Z,99.90
2018-05-25T09:15:39.091Z,99.90
2018-05-25T09:18:09.233Z,99.90
2018-05-25T09:20:39.333Z,99.90
2018-05-25T09:23:10.429Z,99.90
2018-05-25T09:25:40.609Z,99.90
2018-05-25T09:28:10.813Z,99.90
2018-05-25T09:30:41.190Z,99.90
2018-05-25T09:33:12.044Z,99.90
2018-05-25T09:35:42.408Z,99.90
2018-05-25T09:38:12.802Z,99.90
2018-05-25T09:40:43.616Z,99.90
2018-05-25T09:43:13.657Z,99.90
2018-05-25T09:45:44.726Z,99.90
2018-05-25T09:48:14.758Z,99.80
2018-05-25T09:50:44.971Z,99.80
2018-05-25T09:53:15.353Z,99.10
2018-05-25T09:55:55.812Z,97.50
2018-05-25T09:58:27.661Z,97.50
2018-05-25T10:00:57.984Z,96.40
2018-05-25T10:03:28.131Z,96.00
2018-05-25T10:05:59.181Z,95.10
2018-05-25T10:08:29.198Z,95.10
2018-05-25T10:11:00.031Z,94.40
2018-05-25T10:13:31.135Z,94.30
2018-05-25T10:16:01.152Z,94.30
2018-05-25T10:18:31.192Z,93.20
2018-05-25T10:21:02.252Z,92.50
2018-05-25T10:23:32.272Z,92.50
2018-05-25T10:26:03.104Z,91.00
2018-05-25T10:28:34.297Z,90.40
2018-05-25T10:31:04.557Z,90.30
2018-05-25T10:33:35.417Z,88.40
2018-05-25T10:36:05.880Z,88.40
2018-05-25T10:38:35.872Z,89.00
2018-05-25T10:41:06.065Z,88.60
2018-05-25T10:43:36.375Z,85.70
2018-05-25T10:46:06.452Z,84.40
2018-05-25T10:48:37.395Z,83.80
2018-05-25T10:51:07.788Z,83.30
2018-05-25T10:53:38.152Z,83.20
2018-05-25T10:56:08.255Z,83.50
2018-05-25T10:58:38.633Z,80.30
2018-05-25T11:01:09.447Z,70.70
2018-05-25T11:03:39.472Z,70.70
2018-05-25T11:06:09.825Z,69.50
2018-05-25T11:08:40.604Z,65.10
2018-05-25T11:11:12.853Z,65.00
2018-05-25T11:13:43.320Z,65.70
2018-05-25T11:16:13.989Z,64.50
2018-05-25T11:18:44.424Z,61.50
2018-05-25T11:21:15.415Z,58.60
2018-05-25T11:23:45.688Z,57.70
2018-05-25T11:26:16.053Z,57.40
2018-05-25T11:28:46.531Z,56.70
2018-05-25T11:31:16.777Z,55.60
2018-05-25T11:33:47.204Z,56.80
2018-05-25T11:36:17.528Z,57.10
2018-05-25T11:38:47.569Z,55.10
2018-05-25T11:41:18.172Z,54.10
2018-05-25T11:43:48.218Z,55.00
2018-05-25T11:46:18.224Z,53.50
2018-05-25T11:48:48.521Z,52.00
2018-05-25T11:51:18.566Z,51.70
2018-05-25T11:53:49.466Z,49.80
2018-05-25T11:56:20.656Z,51.90
2018-05-25T11:58:50.765Z,51.80
2018-05-25T12:01:20.803Z,53.20
2018-05-25T12:03:51.075Z,52.70
2018-05-25T12:06:22.210Z,52.40
2018-05-25T12:08:52.362Z,52.50
2018-05-25T12:11:22.699Z,52.60
2018-05-25T12:13:52.692Z,52.10
2018-05-25T12:16:24.493Z,52.00
2018-05-25T12:18:55.687Z,52.20
2018-05-25T12:21:25.832Z,53.00
2018-05-25T12:23:56.175Z,52.90
2018-05-25T12:26:26.774Z,53.10
2018-05-25T12:28:56.815Z,52.70
2018-05-25T12:31:26.891Z,53.20
2018-05-25T12:33:57.937Z,51.00
2018-05-25T12:36:28.194Z,50.90
2018-05-25T12:38:58.344Z,50.90
2018-05-25T12:41:29.445Z,49.60
2018-05-25T12:43:59.533Z,49.50
2018-05-25T12:46:30.427Z,50.80
2018-05-25T12:49:00.744Z,50.80
2018-05-25T12:51:30.798Z,52.80
2018-05-25T12:54:01.857Z,54.80
2018-05-25T12:56:32.985Z,55.00
2018-05-25T12:59:03.363Z,55.00
2018-05-25T13:01:33.455Z,55.60
2018-05-25T13:04:03.877Z,54.60
2018-05-25T13:06:34.204Z,54.00
2018-05-25T13:09:06.311Z,53.10
2018-05-25T13:11:36.401Z,53.10
2018-05-25T13:14:06.545Z,52.00
2018-05-25T13:16:36.837Z,52.00
2018-05-25T13:19:06.910Z,54.60
2018-05-25T13:21:36.910Z,55.30
2018-05-25T13:24:07.457Z,55.40
2018-05-25T13:26:38.442Z,50.70
2018-05-25T13:29:08.792Z,50.70
2018-05-25T13:31:39.209Z,50.30
2018-05-25T13:34:09.377Z,49.80
2018-05-25T13:36:39.689Z,49.80
2018-05-25T13:39:09.966Z,49.90
2018-05-25T13:41:40.005Z,49.00
2018-05-25T13:44:10.509Z,48.50
2018-05-25T13:46:40.913Z,49.30
2018-05-25T13:49:11.718Z,49.00
2018-05-25T13:51:41.789Z,49.00
2018-05-25T13:54:12.140Z,47.40
2018-05-25T13:56:42.149Z,47.20
2018-05-25T13:59:12.280Z,46.10
2018-05-25T14:01:42.872Z,45.80
2018-05-25T14:04:13.641Z,45.00
2018-05-25T14:06:43.937Z,45.00
2018-05-25T14:09:14.157Z,44.80
2018-05-25T14:11:44.275Z,44.30
2018-05-25T14:14:15.114Z,46.70
2018-05-25T14:16:45.896Z,46.70
2018-05-25T14:19:18.631Z,44.40
2018-05-25T14:21:51.128Z,43.70
2018-05-25T14:24:21.802Z,44.20
2018-05-25T14:26:51.966Z,45.30
2018-05-25T14:29:22.284Z,45.60
2018-05-25T14:31:52.422Z,44.40
2018-05-25T14:34:23.758Z,43.70
2018-05-25T14:36:54.242Z,45.50
2018-05-25T14:39:25.077Z,45.80
2018-05-25T14:42:08.016Z,45.60
2018-05-25T14:44:38.398Z,45.30
2018-05-25T14:47:14.336Z,44.70
2018-05-25T14:49:44.576Z,44.70
2018-05-25T14:52:14.644Z,44.40
2018-05-25T14:54:45.845Z,42.30
2018-05-25T14:57:15.909Z,42.30
2018-05-25T14:59:46.696Z,41.70
2018-05-25T15:02:17.065Z,41.60
2018-05-25T15:04:47.143Z,42.10
2018-05-25T15:07:17.423Z,42.50
2018-05-25T15:09:47.863Z,42.00
2018-05-25T15:12:17.981Z,42.70
2018-05-25T15:14:48.061Z,43.10
2018-05-25T15:17:18.413Z,44.30
2018-05-25T15:19:49.271Z,44.90
2018-05-25T15:22:20.099Z,45.10
2018-05-25T15:24:51.945Z,44.60
2018-05-25T15:27:22.421Z,44.60
2018-05-25T15:29:52.689Z,44.20
2018-05-25T15:32:23.765Z,43.50
2018-05-25T15:34:53.797Z,43.50
2018-05-25T15:37:24.793Z,43.80
2018-05-25T15:39:55.772Z,43.90
2018-05-25T15:42:25.817Z,43.90
2018-05-25T15:44:56.155Z,43.70
2018-05-25T15:47:26.376Z,43.60
2018-05-25T15:49:56.429Z,43.50
2018-05-25T15:52:26.484Z,42.90
2018-05-25T15:54:56.837Z,42.50
2018-05-25T15:57:26.816Z,42.00
2018-05-25T15:59:56.784Z,42.00
2018-05-25T16:02:27.194Z,41.50
2018-05-25T16:04:58.137Z,40.40
2018-05-25T16:07:28.736Z,40.40
2018-05-25T16:09:59.064Z,39.90
2018-05-25T16:12:29.201Z,39.50
2018-05-25T16:14:59.278Z,39.90
2018-05-25T16:17:30.082Z,40.20
2018-05-25T16:20:00.057Z,40.20
2018-05-25T16:22:30.131Z,40.40
2018-05-25T16:25:00.550Z,39.30
2018-05-25T16:27:30.748Z,39.80
2018-05-25T16:30:00.768Z,38.50
2018-05-25T16:32:31.169Z,38.40
2018-05-25T16:35:01.190Z,37.10
2018-05-25T16:37:31.455Z,35.90
2018-05-25T16:40:02.928Z,35.50
2018-05-25T16:42:33.927Z,34.50
2018-05-25T16:45:04.117Z,35.50
2018-05-25T16:47:34.377Z,35.70
2018-05-25T16:50:04.519Z,37.10
2018-05-25T16:52:35.317Z,38.80
2018-05-25T16:55:05.739Z,38.70
2018-05-25T16:57:35.747Z,40.00
2018-05-25T17:00:07.445Z,42.50
2018-05-25T17:02:37.434Z,42.50
2018-05-25T17:05:07.768Z,44.20
2018-05-25T17:07:38.865Z,46.20
2018-05-25T17:10:08.853Z,46.20
2018-05-25T17:12:39.341Z,47.00
2018-05-25T17:15:09.564Z,48.20
2018-05-25T17:17:39.587Z,48.80
2018-05-25T17:20:11.110Z,49.90
2018-05-25T17:22:41.169Z,50.00
2018-05-25T17:25:11.253Z,50.30
2018-05-25T17:27:41.719Z,50.50
2018-05-25T17:30:12.622Z,51.10
2018-05-25T17:32:42.757Z,51.10
2018-05-25T17:35:12.984Z,51.80
2018-05-25T17:37:43.304Z,53.00
2018-05-25T17:40:13.383Z,53.20
2018-05-25T17:42:43.629Z,53.40
2018-05-25T17:45:13.789Z,54.10
2018-05-25T17:47:43.979Z,55.00
2018-05-25T17:50:14.441Z,54.90
2018-05-25T17:52:45.443Z,55.70
2018-05-25T17:55:15.471Z,55.60
2018-05-25T17:57:46.381Z,56.00
2018-05-25T18:00:16.478Z,56.50
2018-05-25T18:02:46.493Z,57.20
2018-05-25T18:05:17.901Z,58.60
2018-05-25T18:07:48.052Z,58.60
2018-05-25T18:10:18.914Z,60.00
2018-05-25T18:12:49.250Z,60.00
2018-05-25T18:15:20.111Z,60.90
2018-05-25T18:17:50.813Z,62.30
2018-05-25T18:20:21.115Z,63.30
2018-05-25T18:22:51.382Z,63.60
2018-05-25T18:25:21.780Z,63.50
2018-05-25T18:27:53.089Z,64.30
2018-05-25T18:30:23.317Z,65.60
2018-05-25T18:32:54.288Z,66.70
2018-05-25T18:35:25.956Z,66.70
2018-05-25T18:37:56.338Z,67.00
2018-05-25T18:40:27.490Z,66.60
2018-05-25T18:42:58.385Z,66.80
2018-05-25T18:45:29.558Z,66.80
2018-05-25T18:47:59.893Z,66.50
2018-05-25T18:50:30.813Z,66.40
2018-05-25T18:53:01.186Z,66.40
2018-05-25T18:55:31.600Z,67.60
2018-05-25T18:58:01.794Z,67.80
2018-05-25T19:00:32.589Z,68.00
2018-05-25T19:03:02.903Z,67.90
2018-05-25T19:05:33.177Z,67.70
2018-05-25T19:08:04.195Z,69.10
2018-05-25T19:10:34.560Z,69.00
2018-05-25T19:13:04.958Z,70.50
2018-05-25T19:15:34.968Z,71.70
2018-05-25T19:18:05.603Z,72.60
2018-05-25T19:20:35.757Z,74.00
2018-05-25T19:23:06.412Z,75.10
2018-05-25T19:25:36.713Z,77.00
2018-05-25T19:28:07.738Z,79.60
2018-05-25T19:30:37.838Z,81.70
2018-05-25T19:33:08.256Z,84.40
2018-05-25T19:35:38.280Z,87.00
2018-05-25T19:38:08.388Z,88.90
2018-05-25T19:40:38.753Z,90.30
2018-05-25T19:43:08.833Z,91.30
2018-05-25T19:45:39.694Z,93.90
2018-05-25T19:48:10.807Z,95.10
2018-05-25T19:50:41.091Z,95.00
2018-05-25T19:53:11.333Z,96.50
2018-05-25T19:55:41.776Z,98.00
2018-05-25T19:58:11.937Z,99.40
2018-05-25T20:00:42.084Z,99.90
2018-05-25T20:03:12.452Z,99.90
2018-05-25T20:05:42.515Z,99.90
2018-05-25T20:08:12.653Z,99.90
2018-05-25T20:10:43.033Z,99.90
2018-05-25T20:13:13.087Z,99.90
2018-05-25T20:15:43.132Z,99.90
2018-05-25T20:18:13.600Z,99.90
2018-05-25T20:20:44.439Z,99.90
2018-05-25T20:23:14.566Z,99.90
2018-05-25T20:25:44.931Z,99.90
2018-05-25T20:28:15.755Z,99.90
2018-05-25T20:30:45.896Z,99.90
2018-05-25T20:33:16.377Z,99.90
2018-05-25T20:35:46.798Z,99.90
2018-05-25T20:38:16.894Z,99.90
2018-05-25T20:40:48.921Z,99.90
2018-05-25T20:43:19.119Z,99.90
2018-05-25T20:45:49.416Z,99.90
2018-05-25T20:48:20.568Z,99.90
2018-05-25T20:50:50.660Z,99.90
2018-05-25T20:53:20.991Z,99.90
2018-05-25T20:55:51.178Z,99.90
2018-05-25T20:58:21.380Z,99.90
2018-05-25T21:00:51.876Z,99.90
2018-05-25T21:03:21.976Z,99.90
2018-05-25T21:05:54.166Z,99.90
2018-05-25T21:08:24.649Z,99.90
2018-05-25T21:10:54.755Z,99.90
2018-05-25T21:13:24.901Z,99.90
2018-05-25T21:15:55.460Z,99.90
2018-05-25T21:18:25.809Z,99.90
2018-05-25T21:20:55.984Z,99.90
2018-05-25T21:23:26.384Z,99.90
2018-05-25T21:25:56.891Z,99.90
2018-05-25T21:28:26.983Z,99.90
2018-05-25T21:30:57.470Z,99.90
2018-05-25T21:33:27.931Z,99.90
2018-05-25T21:35:58.052Z,99.90
2018-05-25T21:38:28.398Z,99.90
2018-05-25T21:40:58.459Z,99.90
2018-05-25T21:43:28.902Z,99.90
2018-05-25T21:46:00.015Z,99.90
2018-05-25T21:48:30.093Z,99.90
2018-05-25T21:51:00.414Z,99.90
2018-05-25T21:53:30.882Z,99.90
2018-05-25T21:56:02.147Z,99.90
2018-05-25T21:58:32.230Z,99.90
2018-05-25T22:01:03.320Z,99.90
2018-05-25T22:03:34.576Z,99.90
2018-05-25T22:06:04.821Z,99.90
2018-05-25T22:08:36.133Z,99.90
2018-05-25T22:11:07.123Z,99.90
2018-05-25T22:13:38.216Z,99.90
2018-05-25T22:16:08.310Z,99.90
2018-05-25T22:18:38.316Z,99.90
2018-05-25T22:21:08.645Z,99.90
2018-05-25T22:23:38.681Z,99.90
2018-05-25T22:26:09.468Z,99.90
2018-05-25T22:28:41.591Z,99.90
2018-05-25T22:31:11.616Z,99.90
2018-05-25T22:33:42.161Z,99.90
2018-05-25T22:36:12.597Z,99.90
2018-05-25T22:38:42.713Z,99.90
2018-05-25T22:41:12.685Z,99.90
2018-05-25T22:43:54.467Z,99.90
2018-05-25T22:46:41.247Z,99.90
2018-05-25T22:49:28.119Z,99.90
2018-05-25T22:52:18.940Z,99.90
2018-05-25T22:54:52.746Z,99.90
2018-05-25T22:57:23.165Z,99.90
2018-05-25T22:59:53.478Z,99.90
2018-05-25T23:02:24.428Z,99.90
2018-05-25T23:04:54.484Z,99.90
2018-05-25T23:07:25.572Z,99.90
2018-05-25T23:09:55.665Z,99.90
2018-05-25T23:12:25.676Z,99.90
2018-05-25T23:14:55.951Z,99.90
2018-05-25T23:17:26.292Z,99.90
2018-05-25T23:19:56.342Z,99.90
2018-05-25T23:22:26.600Z,99.90
2018-05-25T23:24:58.401Z,99.90
2018-05-25T23:27:29.737Z,99.90
2018-05-25T23:30:00.052Z,99.90
2018-05-25T23:32:30.075Z,99.90
2018-05-25T23:35:00.133Z,99.90
2018-05-25T23:37:30.841Z,99.90
2018-05-25T23:40:00.956Z,99.90
2018-05-25T23:42:32.036Z,99.90
2018-05-25T23:45:02.359Z,99.90
2018-05-25T23:47:32.569Z,99.90
2018-05-25T23:50:03.322Z,99.90
2018-05-25T23:52:33.763Z,99.90
2018-05-25T23:55:03.815Z,99.90
2018-05-25T23:57:34.998Z,99.90
